sensor_id;sensor_type;location;lat;lon;timestamp;P1;durP1;ratioP1;P2;durP2;ratioP2
19754;SDS011;10036;47.812;9.274;2023-01-19T00:01:37;13.03;;;8.00;;
19754;SDS011;10036;47.812;9.274;2023-01-19T00:04:04;12.00;;;8.10;;
19754;SDS011;10036;47.812;9.274;2023-01-19T00:06:31;13.10;;;7.67;;
19754;SDS011;10036;47.812;9.274;2023-01-19T00:08:58;11.27;;;7.47;;
19754;SDS011;10036;47.812;9.274;2023-01-19T00:11:25;12.03;;;7.77;;
19754;SDS011;10036;47.812;9.274;2023-01-19T00:13:53;12.93;;;7.87;;
19754;SDS011;10036;47.812;9.274;2023-01-19T00:16:20;10.70;;;6.80;;
19754;SDS011;10036;47.812;9.274;2023-01-19T00:18:48;11.47;;;7.40;;
19754;SDS011;10036;47.812;9.274;2023-01-19T00:21:15;9.97;;;6.80;;
19754;SDS011;10036;47.812;9.274;2023-01-19T00:23:43;12.50;;;7.50;;
19754;SDS011;10036;47.812;9.274;2023-01-19T00:26:11;11.87;;;7.87;;
19754;SDS011;10036;47.812;9.274;2023-01-19T00:28:40;14.17;;;8.57;;
19754;SDS011;10036;47.812;9.274;2023-01-19T00:31:08;17.43;;;9.10;;
19754;SDS011;10036;47.812;9.274;2023-01-19T00:33:35;18.37;;;9.60;;
19754;SDS011;10036;47.812;9.274;2023-01-19T00:36:02;15.90;;;8.80;;
19754;SDS011;10036;47.812;9.274;2023-01-19T00:38:29;12.87;;;7.50;;
19754;SDS011;10036;47.812;9.274;2023-01-19T00:40:56;12.07;;;7.17;;
19754;SDS011;10036;47.812;9.274;2023-01-19T00:43:23;13.73;;;7.90;;
19754;SDS011;10036;47.812;9.274;2023-01-19T00:45:49;13.53;;;7.60;;
19754;SDS011;10036;47.812;9.274;2023-01-19T00:48:18;11.23;;;7.83;;
19754;SDS011;10036;47.812;9.274;2023-01-19T00:50:46;12.53;;;8.20;;
19754;SDS011;10036;47.812;9.274;2023-01-19T00:53:14;10.20;;;7.67;;
19754;SDS011;10036;47.812;9.274;2023-01-19T00:55:40;13.40;;;8.00;;
19754;SDS011;10036;47.812;9.274;2023-01-19T00:58:07;13.03;;;8.50;;
19754;SDS011;10036;47.812;9.274;2023-01-19T01:00:34;12.23;;;8.30;;
19754;SDS011;10036;47.812;9.274;2023-01-19T01:03:01;10.70;;;7.60;;
19754;SDS011;10036;47.812;9.274;2023-01-19T01:05:30;13.63;;;7.93;;
19754;SDS011;10036;47.812;9.274;2023-01-19T01:07:56;11.10;;;7.47;;
19754;SDS011;10036;47.812;9.274;2023-01-19T01:10:26;13.87;;;7.63;;
19754;SDS011;10036;47.812;9.274;2023-01-19T01:12:54;10.83;;;7.47;;
19754;SDS011;10036;47.812;9.274;2023-01-19T01:15:21;12.27;;;8.10;;
19754;SDS011;10036;47.812;9.274;2023-01-19T01:17:50;10.53;;;7.50;;
19754;SDS011;10036;47.812;9.274;2023-01-19T01:20:17;10.10;;;7.53;;
19754;SDS011;10036;47.812;9.274;2023-01-19T01:22:52;11.13;;;7.40;;
19754;SDS011;10036;47.812;9.274;2023-01-19T01:25:20;17.30;;;9.37;;
19754;SDS011;10036;47.812;9.274;2023-01-19T01:27:49;18.13;;;9.77;;
19754;SDS011;10036;47.812;9.274;2023-01-19T01:30:16;14.23;;;8.50;;
19754;SDS011;10036;47.812;9.274;2023-01-19T01:32:44;11.70;;;7.57;;
19754;SDS011;10036;47.812;9.274;2023-01-19T01:35:11;10.27;;;6.77;;
19754;SDS011;10036;47.812;9.274;2023-01-19T01:37:38;10.07;;;6.67;;
19754;SDS011;10036;47.812;9.274;2023-01-19T01:40:08;10.60;;;6.87;;
19754;SDS011;10036;47.812;9.274;2023-01-19T01:42:37;11.50;;;7.43;;
19754;SDS011;10036;47.812;9.274;2023-01-19T01:45:06;11.90;;;7.53;;
19754;SDS011;10036;47.812;9.274;2023-01-19T01:47:50;10.50;;;6.50;;
19754;SDS011;10036;47.812;9.274;2023-01-19T01:50:19;11.93;;;7.10;;
19754;SDS011;10036;47.812;9.274;2023-01-19T01:52:48;8.70;;;6.43;;
19754;SDS011;10036;47.812;9.274;2023-01-19T01:55:18;12.20;;;7.07;;
19754;SDS011;10036;47.812;9.274;2023-01-19T01:57:48;12.40;;;6.87;;
19754;SDS011;10036;47.812;9.274;2023-01-19T02:00:17;11.73;;;7.87;;
19754;SDS011;10036;47.812;9.274;2023-01-19T02:02:44;10.80;;;7.27;;
19754;SDS011;10036;47.812;9.274;2023-01-19T02:05:17;17.43;;;7.93;;
19754;SDS011;10036;47.812;9.274;2023-01-19T02:07:48;10.10;;;7.30;;
19754;SDS011;10036;47.812;9.274;2023-01-19T02:10:37;10.93;;;7.07;;
19754;SDS011;10036;47.812;9.274;2023-01-19T02:13:23;10.33;;;7.87;;
19754;SDS011;10036;47.812;9.274;2023-01-19T02:15:50;11.13;;;7.90;;
19754;SDS011;10036;47.812;9.274;2023-01-19T02:18:20;13.67;;;8.00;;
19754;SDS011;10036;47.812;9.274;2023-01-19T02:20:51;12.97;;;7.93;;
19754;SDS011;10036;47.812;9.274;2023-01-19T02:23:41;14.10;;;7.30;;
19754;SDS011;10036;47.812;9.274;2023-01-19T02:26:11;12.77;;;7.70;;
19754;SDS011;10036;47.812;9.274;2023-01-19T02:28:41;12.70;;;7.90;;
19754;SDS011;10036;47.812;9.274;2023-01-19T02:31:12;14.73;;;7.77;;
19754;SDS011;10036;47.812;9.274;2023-01-19T02:33:40;17.10;;;8.03;;
19754;SDS011;10036;47.812;9.274;2023-01-19T02:36:07;13.73;;;7.90;;
19754;SDS011;10036;47.812;9.274;2023-01-19T02:38:36;13.33;;;8.00;;
19754;SDS011;10036;47.812;9.274;2023-01-19T02:41:08;12.17;;;7.43;;
19754;SDS011;10036;47.812;9.274;2023-01-19T02:43:38;12.77;;;8.07;;
19754;SDS011;10036;47.812;9.274;2023-01-19T02:46:07;13.90;;;8.20;;
19754;SDS011;10036;47.812;9.274;2023-01-19T02:48:34;11.83;;;7.83;;
19754;SDS011;10036;47.812;9.274;2023-01-19T02:51:01;13.47;;;8.57;;
19754;SDS011;10036;47.812;9.274;2023-01-19T02:56:50;14.17;;;8.97;;
19754;SDS011;10036;47.812;9.274;2023-01-19T02:59:29;14.80;;;8.70;;
19754;SDS011;10036;47.812;9.274;2023-01-19T03:04:59;13.40;;;8.70;;
19754;SDS011;10036;47.812;9.274;2023-01-19T03:07:43;12.83;;;8.33;;
19754;SDS011;10036;47.812;9.274;2023-01-19T03:10:16;16.90;;;9.43;;
19754;SDS011;10036;47.812;9.274;2023-01-19T03:12:53;14.67;;;9.90;;
19754;SDS011;10036;47.812;9.274;2023-01-19T03:15:28;12.00;;;8.70;;
19754;SDS011;10036;47.812;9.274;2023-01-19T03:18:02;15.43;;;9.37;;
19754;SDS011;10036;47.812;9.274;2023-01-19T03:20:31;15.57;;;9.47;;
19754;SDS011;10036;47.812;9.274;2023-01-19T03:22:59;15.13;;;9.97;;
19754;SDS011;10036;47.812;9.274;2023-01-19T03:25:30;15.90;;;9.23;;
19754;SDS011;10036;47.812;9.274;2023-01-19T03:28:01;16.33;;;10.00;;
19754;SDS011;10036;47.812;9.274;2023-01-19T03:30:30;15.63;;;9.87;;
19754;SDS011;10036;47.812;9.274;2023-01-19T03:33:01;15.30;;;9.97;;
19754;SDS011;10036;47.812;9.274;2023-01-19T03:35:33;16.27;;;10.17;;
19754;SDS011;10036;47.812;9.274;2023-01-19T03:38:04;14.20;;;10.03;;
19754;SDS011;10036;47.812;9.274;2023-01-19T03:40:37;15.87;;;10.30;;
19754;SDS011;10036;47.812;9.274;2023-01-19T03:43:06;15.57;;;10.30;;
19754;SDS011;10036;47.812;9.274;2023-01-19T03:45:35;15.20;;;10.07;;
19754;SDS011;10036;47.812;9.274;2023-01-19T03:48:04;16.90;;;10.50;;
19754;SDS011;10036;47.812;9.274;2023-01-19T03:50:32;16.30;;;10.57;;
19754;SDS011;10036;47.812;9.274;2023-01-19T03:52:59;18.43;;;10.57;;
19754;SDS011;10036;47.812;9.274;2023-01-19T03:55:30;15.60;;;10.63;;
19754;SDS011;10036;47.812;9.274;2023-01-19T03:57:57;18.30;;;11.17;;
19754;SDS011;10036;47.812;9.274;2023-01-19T04:00:25;16.73;;;10.50;;
19754;SDS011;10036;47.812;9.274;2023-01-19T04:02:53;15.37;;;11.00;;
19754;SDS011;10036;47.812;9.274;2023-01-19T04:05:20;18.10;;;10.70;;
19754;SDS011;10036;47.812;9.274;2023-01-19T04:07:47;17.63;;;11.17;;
19754;SDS011;10036;47.812;9.274;2023-01-19T04:10:15;21.03;;;11.90;;
19754;SDS011;10036;47.812;9.274;2023-01-19T04:12:42;19.17;;;11.80;;
19754;SDS011;10036;47.812;9.274;2023-01-19T04:15:09;22.57;;;12.40;;
19754;SDS011;10036;47.812;9.274;2023-01-19T04:17:38;19.13;;;12.33;;
19754;SDS011;10036;47.812;9.274;2023-01-19T04:20:06;19.70;;;12.07;;
19754;SDS011;10036;47.812;9.274;2023-01-19T04:22:34;20.40;;;11.70;;
19754;SDS011;10036;47.812;9.274;2023-01-19T04:25:03;19.03;;;11.13;;
19754;SDS011;10036;47.812;9.274;2023-01-19T04:27:30;18.83;;;11.60;;
19754;SDS011;10036;47.812;9.274;2023-01-19T04:29:57;18.97;;;11.23;;
19754;SDS011;10036;47.812;9.274;2023-01-19T04:32:24;16.37;;;10.40;;
19754;SDS011;10036;47.812;9.274;2023-01-19T04:34:53;17.63;;;10.67;;
19754;SDS011;10036;47.812;9.274;2023-01-19T04:37:20;17.40;;;10.03;;
19754;SDS011;10036;47.812;9.274;2023-01-19T04:39:47;15.70;;;10.37;;
19754;SDS011;10036;47.812;9.274;2023-01-19T04:42:14;17.30;;;10.60;;
19754;SDS011;10036;47.812;9.274;2023-01-19T04:44:41;17.60;;;10.20;;
19754;SDS011;10036;47.812;9.274;2023-01-19T04:47:08;17.60;;;11.10;;
19754;SDS011;10036;47.812;9.274;2023-01-19T04:49:35;19.10;;;10.57;;
19754;SDS011;10036;47.812;9.274;2023-01-19T04:52:03;20.93;;;10.90;;
19754;SDS011;10036;47.812;9.274;2023-01-19T04:54:31;18.70;;;11.63;;
19754;SDS011;10036;47.812;9.274;2023-01-19T04:56:58;19.80;;;11.00;;
19754;SDS011;10036;47.812;9.274;2023-01-19T04:59:25;20.43;;;11.47;;
19754;SDS011;10036;47.812;9.274;2023-01-19T05:01:51;21.97;;;12.03;;
19754;SDS011;10036;47.812;9.274;2023-01-19T05:04:20;24.10;;;13.13;;
19754;SDS011;10036;47.812;9.274;2023-01-19T05:06:47;23.83;;;13.73;;
19754;SDS011;10036;47.812;9.274;2023-01-19T05:09:15;22.80;;;13.23;;
19754;SDS011;10036;47.812;9.274;2023-01-19T05:11:42;24.93;;;13.37;;
19754;SDS011;10036;47.812;9.274;2023-01-19T05:14:09;28.10;;;14.90;;
19754;SDS011;10036;47.812;9.274;2023-01-19T05:16:36;24.40;;;12.93;;
19754;SDS011;10036;47.812;9.274;2023-01-19T05:19:02;22.30;;;11.70;;
19754;SDS011;10036;47.812;9.274;2023-01-19T05:21:29;19.20;;;11.57;;
19754;SDS011;10036;47.812;9.274;2023-01-19T05:23:56;20.53;;;12.73;;
19754;SDS011;10036;47.812;9.274;2023-01-19T05:26:24;21.50;;;11.77;;
19754;SDS011;10036;47.812;9.274;2023-01-19T05:28:51;16.73;;;10.60;;
19754;SDS011;10036;47.812;9.274;2023-01-19T05:31:18;17.40;;;11.07;;
19754;SDS011;10036;47.812;9.274;2023-01-19T05:33:45;21.73;;;11.40;;
19754;SDS011;10036;47.812;9.274;2023-01-19T05:36:12;18.50;;;10.90;;
19754;SDS011;10036;47.812;9.274;2023-01-19T05:38:39;17.70;;;11.03;;
19754;SDS011;10036;47.812;9.274;2023-01-19T05:41:05;19.53;;;12.20;;
19754;SDS011;10036;47.812;9.274;2023-01-19T05:43:34;19.00;;;12.10;;
19754;SDS011;10036;47.812;9.274;2023-01-19T05:46:01;19.13;;;11.87;;
19754;SDS011;10036;47.812;9.274;2023-01-19T05:48:29;20.97;;;12.03;;
19754;SDS011;10036;47.812;9.274;2023-01-19T05:50:56;20.37;;;12.23;;
19754;SDS011;10036;47.812;9.274;2023-01-19T05:53:23;31.43;;;15.60;;
19754;SDS011;10036;47.812;9.274;2023-01-19T05:55:51;29.53;;;15.47;;
19754;SDS011;10036;47.812;9.274;2023-01-19T05:58:18;25.87;;;14.07;;
19754;SDS011;10036;47.812;9.274;2023-01-19T06:00:46;26.97;;;14.07;;
19754;SDS011;10036;47.812;9.274;2023-01-19T06:03:13;23.17;;;13.77;;
19754;SDS011;10036;47.812;9.274;2023-01-19T06:05:40;28.67;;;13.97;;
19754;SDS011;10036;47.812;9.274;2023-01-19T06:08:07;26.53;;;13.53;;
19754;SDS011;10036;47.812;9.274;2023-01-19T06:10:34;22.63;;;13.17;;
19754;SDS011;10036;47.812;9.274;2023-01-19T06:13:00;19.87;;;12.33;;
19754;SDS011;10036;47.812;9.274;2023-01-19T06:15:27;20.80;;;12.13;;
19754;SDS011;10036;47.812;9.274;2023-01-19T06:17:55;19.77;;;12.23;;
19754;SDS011;10036;47.812;9.274;2023-01-19T06:20:22;21.43;;;11.90;;
19754;SDS011;10036;47.812;9.274;2023-01-19T06:22:49;18.10;;;11.17;;
19754;SDS011;10036;47.812;9.274;2023-01-19T06:25:16;21.03;;;12.00;;
19754;SDS011;10036;47.812;9.274;2023-01-19T06:27:43;19.43;;;12.17;;
19754;SDS011;10036;47.812;9.274;2023-01-19T06:30:11;20.27;;;12.27;;
19754;SDS011;10036;47.812;9.274;2023-01-19T06:32:38;17.30;;;11.30;;
19754;SDS011;10036;47.812;9.274;2023-01-19T06:35:07;17.90;;;11.60;;
19754;SDS011;10036;47.812;9.274;2023-01-19T06:37:35;26.83;;;13.83;;
19754;SDS011;10036;47.812;9.274;2023-01-19T06:40:02;30.07;;;17.43;;
19754;SDS011;10036;47.812;9.274;2023-01-19T06:42:29;21.33;;;14.30;;
19754;SDS011;10036;47.812;9.274;2023-01-19T06:44:56;17.93;;;11.63;;
19754;SDS011;10036;47.812;9.274;2023-01-19T06:47:23;22.07;;;12.37;;
19754;SDS011;10036;47.812;9.274;2023-01-19T06:49:50;24.63;;;14.37;;
19754;SDS011;10036;47.812;9.274;2023-01-19T06:52:18;18.13;;;11.07;;
19754;SDS011;10036;47.812;9.274;2023-01-19T06:54:45;17.93;;;11.83;;
19754;SDS011;10036;47.812;9.274;2023-01-19T06:57:12;20.83;;;12.07;;
19754;SDS011;10036;47.812;9.274;2023-01-19T06:59:39;22.00;;;11.60;;
19754;SDS011;10036;47.812;9.274;2023-01-19T07:02:06;19.03;;;11.90;;
19754;SDS011;10036;47.812;9.274;2023-01-19T07:04:35;23.00;;;12.43;;
19754;SDS011;10036;47.812;9.274;2023-01-19T07:07:01;20.37;;;12.23;;
19754;SDS011;10036;47.812;9.274;2023-01-19T07:09:30;25.60;;;14.73;;
19754;SDS011;10036;47.812;9.274;2023-01-19T07:11:56;23.27;;;13.63;;
19754;SDS011;10036;47.812;9.274;2023-01-19T07:14:24;24.60;;;13.50;;
19754;SDS011;10036;47.812;9.274;2023-01-19T07:16:55;28.90;;;16.33;;
19754;SDS011;10036;47.812;9.274;2023-01-19T07:19:21;31.13;;;16.53;;
19754;SDS011;10036;47.812;9.274;2023-01-19T07:21:48;31.53;;;16.77;;
19754;SDS011;10036;47.812;9.274;2023-01-19T07:24:15;32.93;;;18.37;;
19754;SDS011;10036;47.812;9.274;2023-01-19T07:26:43;38.60;;;18.37;;
19754;SDS011;10036;47.812;9.274;2023-01-19T07:29:10;35.93;;;17.67;;
19754;SDS011;10036;47.812;9.274;2023-01-19T07:31:37;33.67;;;16.90;;
19754;SDS011;10036;47.812;9.274;2023-01-19T07:34:04;32.47;;;17.63;;
19754;SDS011;10036;47.812;9.274;2023-01-19T07:36:31;31.93;;;18.53;;
19754;SDS011;10036;47.812;9.274;2023-01-19T07:38:58;44.07;;;22.67;;
19754;SDS011;10036;47.812;9.274;2023-01-19T07:41:24;30.83;;;17.27;;
19754;SDS011;10036;47.812;9.274;2023-01-19T07:43:53;25.67;;;15.57;;
19754;SDS011;10036;47.812;9.274;2023-01-19T07:46:19;22.87;;;14.03;;
19754;SDS011;10036;47.812;9.274;2023-01-19T07:48:46;21.63;;;13.87;;
19754;SDS011;10036;47.812;9.274;2023-01-19T07:51:14;25.67;;;13.23;;
19754;SDS011;10036;47.812;9.274;2023-01-19T07:53:42;19.00;;;12.80;;
19754;SDS011;10036;47.812;9.274;2023-01-19T07:56:10;22.00;;;12.70;;
19754;SDS011;10036;47.812;9.274;2023-01-19T07:58:37;18.27;;;12.43;;
19754;SDS011;10036;47.812;9.274;2023-01-19T08:01:06;20.80;;;12.80;;
19754;SDS011;10036;47.812;9.274;2023-01-19T08:03:34;21.67;;;12.57;;
19754;SDS011;10036;47.812;9.274;2023-01-19T08:06:01;20.80;;;12.37;;
19754;SDS011;10036;47.812;9.274;2023-01-19T08:08:29;18.90;;;12.47;;
19754;SDS011;10036;47.812;9.274;2023-01-19T08:10:56;18.57;;;12.13;;
19754;SDS011;10036;47.812;9.274;2023-01-19T08:13:23;19.80;;;12.60;;
19754;SDS011;10036;47.812;9.274;2023-01-19T08:15:50;20.20;;;12.43;;
19754;SDS011;10036;47.812;9.274;2023-01-19T08:18:19;20.63;;;12.63;;
19754;SDS011;10036;47.812;9.274;2023-01-19T08:20:47;21.30;;;12.60;;
19754;SDS011;10036;47.812;9.274;2023-01-19T08:23:13;21.87;;;13.13;;
19754;SDS011;10036;47.812;9.274;2023-01-19T08:25:42;23.90;;;13.53;;
19754;SDS011;10036;47.812;9.274;2023-01-19T08:28:10;25.47;;;12.63;;
19754;SDS011;10036;47.812;9.274;2023-01-19T08:30:39;20.13;;;12.70;;
19754;SDS011;10036;47.812;9.274;2023-01-19T08:33:07;21.57;;;13.17;;
19754;SDS011;10036;47.812;9.274;2023-01-19T08:35:36;22.23;;;12.80;;
19754;SDS011;10036;47.812;9.274;2023-01-19T08:38:05;19.30;;;11.97;;
19754;SDS011;10036;47.812;9.274;2023-01-19T08:40:33;22.03;;;13.23;;
19754;SDS011;10036;47.812;9.274;2023-01-19T08:43:03;20.37;;;12.23;;
19754;SDS011;10036;47.812;9.274;2023-01-19T08:45:31;19.40;;;11.93;;
19754;SDS011;10036;47.812;9.274;2023-01-19T08:47:59;19.70;;;11.90;;
19754;SDS011;10036;47.812;9.274;2023-01-19T08:50:26;20.57;;;11.60;;
19754;SDS011;10036;47.812;9.274;2023-01-19T08:52:55;21.83;;;12.13;;
19754;SDS011;10036;47.812;9.274;2023-01-19T08:55:24;21.67;;;12.37;;
19754;SDS011;10036;47.812;9.274;2023-01-19T08:57:52;21.37;;;12.40;;
19754;SDS011;10036;47.812;9.274;2023-01-19T09:00:21;18.33;;;11.33;;
19754;SDS011;10036;47.812;9.274;2023-01-19T09:02:48;18.93;;;11.27;;
19754;SDS011;10036;47.812;9.274;2023-01-19T09:05:15;18.37;;;12.07;;
19754;SDS011;10036;47.812;9.274;2023-01-19T09:07:43;17.43;;;11.20;;
19754;SDS011;10036;47.812;9.274;2023-01-19T09:10:13;16.80;;;10.80;;
19754;SDS011;10036;47.812;9.274;2023-01-19T09:12:41;23.33;;;12.60;;
19754;SDS011;10036;47.812;9.274;2023-01-19T09:15:09;18.70;;;11.23;;
19754;SDS011;10036;47.812;9.274;2023-01-19T09:17:38;17.80;;;12.00;;
19754;SDS011;10036;47.812;9.274;2023-01-19T09:20:05;19.07;;;12.30;;
19754;SDS011;10036;47.812;9.274;2023-01-19T09:22:33;22.43;;;12.00;;
19754;SDS011;10036;47.812;9.274;2023-01-19T09:24:59;21.00;;;11.80;;
19754;SDS011;10036;47.812;9.274;2023-01-19T09:27:28;19.27;;;12.53;;
19754;SDS011;10036;47.812;9.274;2023-01-19T09:29:55;20.60;;;12.53;;
19754;SDS011;10036;47.812;9.274;2023-01-19T09:32:22;18.90;;;12.13;;
19754;SDS011;10036;47.812;9.274;2023-01-19T09:34:49;19.23;;;12.47;;
19754;SDS011;10036;47.812;9.274;2023-01-19T09:37:18;17.67;;;11.63;;
19754;SDS011;10036;47.812;9.274;2023-01-19T09:39:44;19.20;;;11.83;;
19754;SDS011;10036;47.812;9.274;2023-01-19T09:42:12;15.73;;;10.53;;
19754;SDS011;10036;47.812;9.274;2023-01-19T09:44:47;17.97;;;11.40;;
19754;SDS011;10036;47.812;9.274;2023-01-19T09:47:18;15.33;;;10.73;;
19754;SDS011;10036;47.812;9.274;2023-01-19T09:49:48;15.13;;;10.93;;
19754;SDS011;10036;47.812;9.274;2023-01-19T09:52:19;18.77;;;11.37;;
19754;SDS011;10036;47.812;9.274;2023-01-19T09:54:46;14.17;;;10.10;;
19754;SDS011;10036;47.812;9.274;2023-01-19T09:57:17;15.90;;;9.77;;
19754;SDS011;10036;47.812;9.274;2023-01-19T09:59:45;14.40;;;8.60;;
19754;SDS011;10036;47.812;9.274;2023-01-19T10:02:21;17.00;;;9.40;;
19754;SDS011;10036;47.812;9.274;2023-01-19T10:04:58;15.20;;;10.20;;
19754;SDS011;10036;47.812;9.274;2023-01-19T10:10:23;14.47;;;9.90;;
19754;SDS011;10036;47.812;9.274;2023-01-19T10:13:00;16.57;;;10.47;;
19754;SDS011;10036;47.812;9.274;2023-01-19T10:15:40;12.38;;;8.80;;
19754;SDS011;10036;47.812;9.274;2023-01-19T10:18:16;16.03;;;9.83;;
19754;SDS011;10036;47.812;9.274;2023-01-19T10:20:46;17.77;;;10.37;;
19754;SDS011;10036;47.812;9.274;2023-01-19T10:23:18;16.27;;;10.10;;
19754;SDS011;10036;47.812;9.274;2023-01-19T10:25:50;43.63;;;17.53;;
19754;SDS011;10036;47.812;9.274;2023-01-19T10:28:20;24.50;;;12.77;;
19754;SDS011;10036;47.812;9.274;2023-01-19T10:30:51;18.27;;;10.40;;
19754;SDS011;10036;47.812;9.274;2023-01-19T10:33:20;16.27;;;10.00;;
19754;SDS011;10036;47.812;9.274;2023-01-19T10:35:47;14.17;;;9.30;;
19754;SDS011;10036;47.812;9.274;2023-01-19T10:38:14;15.43;;;8.63;;
19754;SDS011;10036;47.812;9.274;2023-01-19T10:40:47;11.93;;;8.10;;
19754;SDS011;10036;47.812;9.274;2023-01-19T10:43:34;14.57;;;8.82;;
19754;SDS011;10036;47.812;9.274;2023-01-19T10:46:07;13.43;;;8.30;;
19754;SDS011;10036;47.812;9.274;2023-01-19T10:48:43;12.32;;;8.05;;
19754;SDS011;10036;47.812;9.274;2023-01-19T10:51:13;10.23;;;6.85;;
19754;SDS011;10036;47.812;9.274;2023-01-19T10:53:40;8.88;;;6.22;;
19754;SDS011;10036;47.812;9.274;2023-01-19T10:56:20;10.70;;;7.22;;
19754;SDS011;10036;47.812;9.274;2023-01-19T10:58:52;8.85;;;7.03;;
19754;SDS011;10036;47.812;9.274;2023-01-19T11:01:20;10.57;;;7.15;;
19754;SDS011;10036;47.812;9.274;2023-01-19T11:03:49;11.07;;;7.70;;
19754;SDS011;10036;47.812;9.274;2023-01-19T11:06:21;10.50;;;7.50;;
19754;SDS011;10036;47.812;9.274;2023-01-19T11:08:51;11.97;;;7.10;;
19754;SDS011;10036;47.812;9.274;2023-01-19T11:11:25;9.53;;;6.50;;
19754;SDS011;10036;47.812;9.274;2023-01-19T11:14:02;10.90;;;7.63;;
19754;SDS011;10036;47.812;9.274;2023-01-19T11:16:36;10.15;;;6.97;;
19754;SDS011;10036;47.812;9.274;2023-01-19T11:19:04;9.95;;;7.40;;
19754;SDS011;10036;47.812;9.274;2023-01-19T11:21:31;11.40;;;7.13;;
19754;SDS011;10036;47.812;9.274;2023-01-19T11:23:59;10.07;;;7.20;;
19754;SDS011;10036;47.812;9.274;2023-01-19T11:26:31;11.07;;;7.53;;
19754;SDS011;10036;47.812;9.274;2023-01-19T11:29:04;12.80;;;7.33;;
19754;SDS011;10036;47.812;9.274;2023-01-19T11:31:41;12.82;;;7.10;;
19754;SDS011;10036;47.812;9.274;2023-01-19T11:34:20;12.53;;;7.13;;
19754;SDS011;10036;47.812;9.274;2023-01-19T11:36:54;10.10;;;7.38;;
19754;SDS011;10036;47.812;9.274;2023-01-19T11:39:23;9.50;;;6.50;;
19754;SDS011;10036;47.812;9.274;2023-01-19T11:41:53;10.30;;;6.22;;
19754;SDS011;10036;47.812;9.274;2023-01-19T11:44:22;10.88;;;6.82;;
19754;SDS011;10036;47.812;9.274;2023-01-19T11:46:54;10.05;;;6.82;;
19754;SDS011;10036;47.812;9.274;2023-01-19T11:49:24;11.77;;;7.38;;
19754;SDS011;10036;47.812;9.274;2023-01-19T11:51:57;10.30;;;6.20;;
19754;SDS011;10036;47.812;9.274;2023-01-19T11:54:28;9.60;;;5.80;;
19754;SDS011;10036;47.812;9.274;2023-01-19T11:57:00;7.85;;;5.28;;
19754;SDS011;10036;47.812;9.274;2023-01-19T11:59:30;8.30;;;5.88;;
19754;SDS011;10036;47.812;9.274;2023-01-19T12:01:59;7.78;;;5.85;;
19754;SDS011;10036;47.812;9.274;2023-01-19T12:04:37;8.63;;;5.60;;
19754;SDS011;10036;47.812;9.274;2023-01-19T12:07:05;6.25;;;5.60;;
19754;SDS011;10036;47.812;9.274;2023-01-19T12:09:38;8.45;;;6.00;;
19754;SDS011;10036;47.812;9.274;2023-01-19T12:12:10;9.30;;;6.07;;
19754;SDS011;10036;47.812;9.274;2023-01-19T12:14:42;11.20;;;6.22;;
19754;SDS011;10036;47.812;9.274;2023-01-19T12:17:21;8.30;;;6.00;;
19754;SDS011;10036;47.812;9.274;2023-01-19T12:19:53;9.07;;;5.45;;
19754;SDS011;10036;47.812;9.274;2023-01-19T12:22:24;9.18;;;5.93;;
19754;SDS011;10036;47.812;9.274;2023-01-19T12:24:54;9.20;;;5.43;;
19754;SDS011;10036;47.812;9.274;2023-01-19T12:27:35;9.85;;;6.07;;
19754;SDS011;10036;47.812;9.274;2023-01-19T12:30:04;7.55;;;5.82;;
19754;SDS011;10036;47.812;9.274;2023-01-19T12:32:42;6.95;;;5.63;;
19754;SDS011;10036;47.812;9.274;2023-01-19T12:38:21;9.98;;;6.05;;
19754;SDS011;10036;47.812;9.274;2023-01-19T12:43:43;7.65;;;5.55;;
19754;SDS011;10036;47.812;9.274;2023-01-19T12:46:17;8.88;;;5.90;;
19754;SDS011;10036;47.812;9.274;2023-01-19T12:48:46;8.27;;;5.95;;
19754;SDS011;10036;47.812;9.274;2023-01-19T12:51:20;7.90;;;6.28;;
19754;SDS011;10036;47.812;9.274;2023-01-19T12:53:52;8.93;;;6.00;;
19754;SDS011;10036;47.812;9.274;2023-01-19T12:56:25;11.63;;;6.73;;
19754;SDS011;10036;47.812;9.274;2023-01-19T12:58:56;9.32;;;6.43;;
19754;SDS011;10036;47.812;9.274;2023-01-19T13:01:23;11.13;;;6.30;;
19754;SDS011;10036;47.812;9.274;2023-01-19T13:03:58;10.23;;;6.78;;
19754;SDS011;10036;47.812;9.274;2023-01-19T13:09:34;12.57;;;7.70;;
19754;SDS011;10036;47.812;9.274;2023-01-19T13:12:21;10.05;;;6.53;;
19754;SDS011;10036;47.812;9.274;2023-01-19T13:14:48;8.75;;;6.22;;
19754;SDS011;10036;47.812;9.274;2023-01-19T13:17:18;12.02;;;6.95;;
19754;SDS011;10036;47.812;9.274;2023-01-19T13:20:04;9.43;;;5.63;;
19754;SDS011;10036;47.812;9.274;2023-01-19T13:25:46;8.50;;;5.85;;
19754;SDS011;10036;47.812;9.274;2023-01-19T13:28:18;8.75;;;5.82;;
19754;SDS011;10036;47.812;9.274;2023-01-19T13:30:51;6.82;;;5.60;;
19754;SDS011;10036;47.812;9.274;2023-01-19T13:33:22;9.02;;;6.25;;
19754;SDS011;10036;47.812;9.274;2023-01-19T13:35:52;8.00;;;5.93;;
19754;SDS011;10036;47.812;9.274;2023-01-19T13:38:22;7.95;;;5.65;;
19754;SDS011;10036;47.812;9.274;2023-01-19T13:40:51;8.27;;;6.10;;
19754;SDS011;10036;47.812;9.274;2023-01-19T13:43:20;9.65;;;5.90;;
19754;SDS011;10036;47.812;9.274;2023-01-19T13:45:53;10.88;;;6.30;;
19754;SDS011;10036;47.812;9.274;2023-01-19T13:48:21;9.73;;;6.07;;
19754;SDS011;10036;47.812;9.274;2023-01-19T13:51:00;7.80;;;5.93;;
19754;SDS011;10036;47.812;9.274;2023-01-19T13:53:29;11.68;;;6.20;;
19754;SDS011;10036;47.812;9.274;2023-01-19T13:56:18;8.18;;;5.60;;
19754;SDS011;10036;47.812;9.274;2023-01-19T13:59:00;10.95;;;6.10;;
19754;SDS011;10036;47.812;9.274;2023-01-19T14:01:36;8.38;;;6.18;;
19754;SDS011;10036;47.812;9.274;2023-01-19T14:04:04;7.60;;;6.32;;
19754;SDS011;10036;47.812;9.274;2023-01-19T14:06:36;10.57;;;6.20;;
19754;SDS011;10036;47.812;9.274;2023-01-19T14:09:13;9.80;;;6.40;;
19754;SDS011;10036;47.812;9.274;2023-01-19T14:11:42;9.32;;;6.05;;
19754;SDS011;10036;47.812;9.274;2023-01-19T14:14:24;9.82;;;6.07;;
19754;SDS011;10036;47.812;9.274;2023-01-19T14:16:52;9.40;;;5.97;;
19754;SDS011;10036;47.812;9.274;2023-01-19T14:19:19;7.45;;;6.32;;
19754;SDS011;10036;47.812;9.274;2023-01-19T14:21:58;14.02;;;8.25;;
19754;SDS011;10036;47.812;9.274;2023-01-19T14:24:25;20.35;;;10.55;;
19754;SDS011;10036;47.812;9.274;2023-01-19T14:27:06;17.27;;;8.25;;
19754;SDS011;10036;47.812;9.274;2023-01-19T14:29:38;11.57;;;7.45;;
19754;SDS011;10036;47.812;9.274;2023-01-19T14:32:12;11.60;;;7.13;;
19754;SDS011;10036;47.812;9.274;2023-01-19T14:34:41;7.30;;;6.18;;
19754;SDS011;10036;47.812;9.274;2023-01-19T14:37:15;9.85;;;6.55;;
19754;SDS011;10036;47.812;9.274;2023-01-19T14:39:45;10.90;;;6.00;;
19754;SDS011;10036;47.812;9.274;2023-01-19T14:42:15;7.35;;;5.35;;
19754;SDS011;10036;47.812;9.274;2023-01-19T14:44:46;9.90;;;5.97;;
19754;SDS011;10036;47.812;9.274;2023-01-19T14:47:19;8.50;;;5.93;;
19754;SDS011;10036;47.812;9.274;2023-01-19T14:49:51;10.93;;;5.45;;
19754;SDS011;10036;47.812;9.274;2023-01-19T14:52:23;9.00;;;5.25;;
19754;SDS011;10036;47.812;9.274;2023-01-19T14:54:51;6.85;;;5.50;;
19754;SDS011;10036;47.812;9.274;2023-01-19T14:57:19;6.45;;;5.18;;
19754;SDS011;10036;47.812;9.274;2023-01-19T14:59:46;6.55;;;5.03;;
19754;SDS011;10036;47.812;9.274;2023-01-19T15:02:16;6.22;;;5.25;;
19754;SDS011;10036;47.812;9.274;2023-01-19T15:04:43;9.35;;;5.53;;
19754;SDS011;10036;47.812;9.274;2023-01-19T15:07:13;9.13;;;5.60;;